createdAt,value
2022-10-04T00:01:58.222Z,9.30
2022-10-04T00:04:54.738Z,9.39
2022-10-04T00:07:25.935Z,9.40
2022-10-04T00:09:57.056Z,9.38
2022-10-04T00:12:29.616Z,9.42
2022-10-04T00:14:58.976Z,9.45
2022-10-04T00:17:27.891Z,9.55
2022-10-04T00:19:57.800Z,9.57
2022-10-04T00:22:34.100Z,9.62
2022-10-04T00:25:06.965Z,9.63
2022-10-04T00:27:34.951Z,9.68
2022-10-04T00:30:01.442Z,9.67
2022-10-04T00:32:40.412Z,9.65
2022-10-04T00:35:25.637Z,9.58
2022-10-04T00:38:07.747Z,9.63
2022-10-04T00:40:39.748Z,9.65
2022-10-04T00:43:47.135Z,9.69
2022-10-04T00:46:18.834Z,9.65
2022-10-04T00:48:54.416Z,9.55
2022-10-04T00:51:45.817Z,9.54
2022-10-04T00:54:15.312Z,9.53
2022-10-04T00:56:59.776Z,9.54
2022-10-04T00:59:51.829Z,9.55
2022-10-04T01:02:22.456Z,9.56
2022-10-04T01:04:54.885Z,9.54
2022-10-04T01:07:28.819Z,9.54
2022-10-04T01:09:59.227Z,9.59
2022-10-04T01:12:42.720Z,9.53
2022-10-04T01:15:32.295Z,9.59
2022-10-04T01:18:09.414Z,9.59
2022-10-04T01:20:49.301Z,9.56
2022-10-04T01:23:37.760Z,9.52
2022-10-04T01:26:30.468Z,9.59
2022-10-04T01:29:00.931Z,9.57
2022-10-04T01:31:28.767Z,9.59
2022-10-04T01:33:56.234Z,9.63
2022-10-04T01:36:22.911Z,9.58
2022-10-04T01:38:50.850Z,9.55
2022-10-04T01:41:25.390Z,9.51
2022-10-04T01:43:58.175Z,9.48
2022-10-04T01:46:32.876Z,9.54
2022-10-04T01:49:03.293Z,9.50
2022-10-04T01:51:31.659Z,9.50
2022-10-04T01:54:07.610Z,9.49
2022-10-04T01:56:42.475Z,9.46
2022-10-04T01:59:21.869Z,9.46
2022-10-04T02:02:17.529Z,9.45
2022-10-04T02:04:52.643Z,9.48
2022-10-04T02:07:19.947Z,9.50
2022-10-04T02:09:47.985Z,9.50
2022-10-04T02:12:16.566Z,9.50
2022-10-04T02:14:53.356Z,9.45
2022-10-04T02:17:28.255Z,9.43
2022-10-04T02:19:55.135Z,9.50
2022-10-04T02:22:23.606Z,9.62
2022-10-04T02:24:50.686Z,9.57
2022-10-04T02:27:17.554Z,9.54
2022-10-04T02:29:44.180Z,9.57
2022-10-04T02:32:29.904Z,9.61
2022-10-04T02:34:57.216Z,9.59
2022-10-04T02:37:26.051Z,9.63
2022-10-04T02:39:55.640Z,9.59
2022-10-04T02:42:33.717Z,9.56
2022-10-04T02:45:05.854Z,9.56
2022-10-04T02:47:43.375Z,9.59
2022-10-04T02:50:33.145Z,9.60
2022-10-04T02:53:11.726Z,9.62
2022-10-04T02:55:38.817Z,9.57
2022-10-04T02:58:09.873Z,9.60
2022-10-04T03:00:49.386Z,9.52
2022-10-04T03:03:18.955Z,9.47
2022-10-04T03:06:09.046Z,9.46
2022-10-04T03:08:54.880Z,9.34
2022-10-04T03:11:23.111Z,9.29
2022-10-04T03:13:52.945Z,9.28
2022-10-04T03:16:20.245Z,9.23
2022-10-04T03:18:47.757Z,9.21
2022-10-04T03:21:17.355Z,9.19
2022-10-04T03:23:46.085Z,9.20
2022-10-04T03:26:28.355Z,9.17
2022-10-04T03:28:57.245Z,9.13
2022-10-04T03:31:26.792Z,9.11
2022-10-04T03:33:57.666Z,9.21
2022-10-04T03:36:25.410Z,9.14
2022-10-04T03:38:54.089Z,9.08
2022-10-04T03:41:22.279Z,9.13
2022-10-04T03:43:53.556Z,9.10
2022-10-04T03:46:22.838Z,9.07
2022-10-04T03:48:51.976Z,9.00
2022-10-04T03:51:26.110Z,8.99
2022-10-04T03:53:54.960Z,8.96
2022-10-04T03:56:35.754Z,9.00
2022-10-04T03:59:04.660Z,9.03
2022-10-04T04:01:40.499Z,8.99
2022-10-04T04:04:17.957Z,8.99
2022-10-04T04:06:51.330Z,8.97
2022-10-04T04:09:23.911Z,8.98
2022-10-04T04:11:51.009Z,9.03
2022-10-04T04:14:25.241Z,9.08
2022-10-04T04:16:53.351Z,9.03
2022-10-04T04:19:22.887Z,9.04
2022-10-04T04:21:50.008Z,9.00
2022-10-04T04:24:24.953Z,8.99
2022-10-04T04:26:56.288Z,8.99
2022-10-04T04:29:34.859Z,8.97
2022-10-04T04:32:05.757Z,8.97
2022-10-04T04:34:34.932Z,8.97
2022-10-04T04:37:05.140Z,8.96
2022-10-04T04:39:39.852Z,8.96
2022-10-04T04:42:19.025Z,8.95
2022-10-04T04:44:56.644Z,8.98
2022-10-04T04:47:37.364Z,8.95
2022-10-04T04:50:10.929Z,8.96
2022-10-04T04:52:37.782Z,8.93
2022-10-04T04:55:05.788Z,9.01
2022-10-04T04:57:33.537Z,8.93
2022-10-04T05:00:02.045Z,8.88
2022-10-04T05:02:35.352Z,8.86
2022-10-04T05:05:23.642Z,8.77
2022-10-04T05:08:03.183Z,8.71
2022-10-04T05:10:31.662Z,8.68
2022-10-04T05:13:02.646Z,8.63
2022-10-04T05:15:34.060Z,8.65
2022-10-04T05:18:01.998Z,8.63
2022-10-04T05:20:29.383Z,8.61
2022-10-04T05:22:56.264Z,8.55
2022-10-04T05:25:32.475Z,8.47
2022-10-04T05:27:59.362Z,8.45
2022-10-04T05:30:28.942Z,8.41
2022-10-04T05:33:07.658Z,8.36
2022-10-04T05:35:54.185Z,8.36
2022-10-04T05:38:43.284Z,8.35
2022-10-04T05:41:22.363Z,8.31
2022-10-04T05:43:50.295Z,8.29
2022-10-04T05:46:29.870Z,8.29
2022-10-04T05:49:01.358Z,8.28
2022-10-04T05:51:37.600Z,8.28
2022-10-04T05:54:05.005Z,8.29
2022-10-04T05:57:08.699Z,8.30
2022-10-04T05:59:51.869Z,8.28
2022-10-04T06:02:39.369Z,8.32
2022-10-04T06:05:12.624Z,8.37
2022-10-04T06:07:57.229Z,8.44
2022-10-04T06:10:42.615Z,8.45
2022-10-04T06:13:51.271Z,8.52
2022-10-04T06:16:30.093Z,8.65
2022-10-04T06:19:14.944Z,8.68
2022-10-04T06:22:06.535Z,8.79
2022-10-04T06:24:37.265Z,8.92
2022-10-04T06:27:22.269Z,9.01
2022-10-04T06:30:01.996Z,9.11
2022-10-04T06:32:47.464Z,9.19
2022-10-04T06:35:21.449Z,9.27
2022-10-04T06:37:56.405Z,9.30
2022-10-04T06:40:44.738Z,9.32
2022-10-04T06:43:29.122Z,9.44
2022-10-04T06:46:01.663Z,9.42
2022-10-04T06:48:48.857Z,9.49
2022-10-04T06:51:41.965Z,9.58
2022-10-04T06:54:18.827Z,9.62
2022-10-04T06:56:53.449Z,9.75
2022-10-04T06:59:41.529Z,9.77
2022-10-04T07:02:34.373Z,9.79
2022-10-04T07:05:16.193Z,9.94
2022-10-04T07:07:47.798Z,9.99
2022-10-04T07:10:23.592Z,9.91
2022-10-04T07:13:06.960Z,10.05
2022-10-04T07:15:55.269Z,10.33
2022-10-04T07:18:44.118Z,10.47
2022-10-04T07:21:14.052Z,10.35
2022-10-04T07:23:55.299Z,10.60
2022-10-04T07:26:43.626Z,10.67
2022-10-04T07:29:35.238Z,10.83
2022-10-04T07:32:12.149Z,10.85
2022-10-04T07:35:09.564Z,10.67
2022-10-04T07:38:04.138Z,10.69
2022-10-04T07:40:36.142Z,10.78
2022-10-04T07:43:26.848Z,10.88
2022-10-04T07:46:24.831Z,11.13
2022-10-04T07:48:51.745Z,11.41
2022-10-04T07:51:33.204Z,11.48
2022-10-04T07:54:18.604Z,11.57
2022-10-04T07:57:01.559Z,11.61
2022-10-04T07:59:39.205Z,11.84
2022-10-04T08:02:30.954Z,11.96
2022-10-04T08:05:22.615Z,11.86
2022-10-04T08:08:26.832Z,11.80
2022-10-04T08:11:15.295Z,11.67
2022-10-04T08:13:52.744Z,11.47
2022-10-04T08:16:31.470Z,11.42
2022-10-04T08:19:10.815Z,11.43
2022-10-04T08:22:19.402Z,11.69
2022-10-04T08:25:09.546Z,11.82
2022-10-04T08:28:12.097Z,11.81
2022-10-04T08:31:21.482Z,11.89
2022-10-04T08:34:21.320Z,11.98
2022-10-04T08:37:11.874Z,11.47
2022-10-04T08:39:58.542Z,11.69
2022-10-04T08:42:41.858Z,11.96
2022-10-04T08:45:29.707Z,12.00
2022-10-04T08:48:30.368Z,12.06
2022-10-04T08:51:06.106Z,12.08
2022-10-04T08:53:48.420Z,12.14
2022-10-04T08:56:52.548Z,12.17
2022-10-04T08:59:46.589Z,12.19
2022-10-04T09:02:50.436Z,12.31
2022-10-04T09:05:35.475Z,12.57
2022-10-04T09:08:20.437Z,12.66
2022-10-04T09:11:12.049Z,12.51
2022-10-04T09:13:50.821Z,12.51
2022-10-04T09:16:43.001Z,12.77
2022-10-04T09:19:23.644Z,12.90
2022-10-04T09:22:02.318Z,12.85
2022-10-04T09:24:34.812Z,12.87
2022-10-04T09:27:54.681Z,12.97
2022-10-04T09:31:01.605Z,12.99
2022-10-04T09:33:42.701Z,13.07
2022-10-04T09:36:33.581Z,13.15
2022-10-04T09:39:30.748Z,13.40
2022-10-04T09:42:12.931Z,13.41
2022-10-04T09:44:51.995Z,13.36
2022-10-04T09:47:31.944Z,13.28
2022-10-04T09:50:37.356Z,13.77
2022-10-04T09:53:25.482Z,13.55
2022-10-04T09:56:01.266Z,13.59
2022-10-04T09:59:05.647Z,13.54
2022-10-04T10:01:39.538Z,13.79
2022-10-04T10:04:19.457Z,13.85
2022-10-04T10:07:01.664Z,13.90
2022-10-04T10:10:11.553Z,13.73
2022-10-04T10:13:18.736Z,13.95
2022-10-04T10:16:03.518Z,13.88
2022-10-04T10:19:15.199Z,13.84
2022-10-04T10:22:05.996Z,13.75
2022-10-04T10:25:01.208Z,13.71
2022-10-04T10:27:59.806Z,13.74
2022-10-04T10:30:45.821Z,13.85
2022-10-04T10:33:57.532Z,13.90
2022-10-04T10:36:40.090Z,13.97
2022-10-04T10:39:25.496Z,13.95
2022-10-04T10:42:14.397Z,14.16
2022-10-04T10:45:09.216Z,14.30
2022-10-04T10:47:59.730Z,14.15
2022-10-04T10:51:11.692Z,14.13
2022-10-04T10:54:12.568Z,14.11
2022-10-04T10:57:02.143Z,14.32
2022-10-04T10:59:50.495Z,14.45
2022-10-04T11:02:47.638Z,14.33
2022-10-04T11:05:33.635Z,14.41
2022-10-04T11:08:29.913Z,14.58
2022-10-04T11:11:33.479Z,14.43
2022-10-04T11:14:23.886Z,14.53
2022-10-04T11:17:04.040Z,14.54
2022-10-04T11:19:54.672Z,14.67
2022-10-04T11:22:24.546Z,14.90
2022-10-04T11:25:25.264Z,14.58
2022-10-04T11:28:14.097Z,14.57
2022-10-04T11:30:58.952Z,14.60
2022-10-04T11:33:43.877Z,14.60
2022-10-04T11:36:33.346Z,14.80
2022-10-04T11:39:06.000Z,14.64
2022-10-04T11:41:33.592Z,14.79
2022-10-04T11:44:00.454Z,14.70
2022-10-04T11:46:42.918Z,14.65
2022-10-04T11:49:40.127Z,14.74
2022-10-04T11:52:16.937Z,14.78
2022-10-04T11:54:55.758Z,14.71
2022-10-04T11:57:37.174Z,14.84
2022-10-04T12:00:16.964Z,14.91
2022-10-04T12:03:42.329Z,14.97
2022-10-04T12:06:14.626Z,15.24
2022-10-04T12:09:06.246Z,15.10
2022-10-04T12:12:22.141Z,14.93
2022-10-04T12:14:49.415Z,15.06
2022-10-04T12:17:28.724Z,15.00
2022-10-04T12:20:09.867Z,15.04
2022-10-04T12:22:57.386Z,15.01
2022-10-04T12:25:48.918Z,15.12
2022-10-04T12:28:27.737Z,15.43
2022-10-04T12:31:03.684Z,15.19
2022-10-04T12:33:49.035Z,15.12
2022-10-04T12:36:44.115Z,15.07
2022-10-04T12:39:44.444Z,15.10
2022-10-04T12:42:43.529Z,15.04
2022-10-04T12:45:31.809Z,15.23
2022-10-04T12:48:07.654Z,15.10
2022-10-04T12:50:49.523Z,15.24
2022-10-04T12:53:44.247Z,15.43
2022-10-04T12:56:38.831Z,15.75
2022-10-04T12:59:15.599Z,15.56
2022-10-04T13:02:30.216Z,15.37
2022-10-04T13:05:38.959Z,15.82
2022-10-04T13:08:24.113Z,15.67
2022-10-04T13:11:02.944Z,15.28
2022-10-04T13:13:44.783Z,15.49
2022-10-04T13:19:53.070Z,15.13
2022-10-04T13:22:56.429Z,15.45
2022-10-04T13:25:37.437Z,15.46
2022-10-04T13:28:23.183Z,15.49
2022-10-04T13:30:57.374Z,15.66
2022-10-04T13:33:41.545Z,15.84
2022-10-04T13:36:23.933Z,15.84
2022-10-04T13:39:07.259Z,15.57
2022-10-04T13:41:33.856Z,15.77
2022-10-04T13:44:22.164Z,15.55
2022-10-04T13:47:06.842Z,15.69
2022-10-04T13:49:58.525Z,15.78
2022-10-04T13:52:58.960Z,15.54
2022-10-04T13:55:57.716Z,15.79
2022-10-04T13:58:49.735Z,15.75
2022-10-04T14:01:49.122Z,15.59
2022-10-04T14:04:24.949Z,15.85
2022-10-04T14:07:17.424Z,15.48
2022-10-04T14:09:53.363Z,15.48
2022-10-04T14:12:19.964Z,15.28
2022-10-04T14:15:01.461Z,15.53
2022-10-04T14:17:53.155Z,15.24
2022-10-04T14:20:47.796Z,15.40
2022-10-04T14:23:33.921Z,15.41
2022-10-04T14:26:09.194Z,15.36
2022-10-04T14:28:54.658Z,15.39
2022-10-04T14:31:27.452Z,15.08
2022-10-04T14:34:00.311Z,15.20
2022-10-04T14:37:04.532Z,15.28
2022-10-04T14:39:52.866Z,15.10
2022-10-04T14:42:44.960Z,15.11
2022-10-04T14:45:28.808Z,15.00
2022-10-04T14:48:24.381Z,14.80
2022-10-04T14:51:11.607Z,14.64
2022-10-04T14:53:38.190Z,14.75
2022-10-04T14:56:38.559Z,14.48
2022-10-04T14:59:15.212Z,14.74
2022-10-04T15:02:07.336Z,14.95
2022-10-04T15:04:38.347Z,14.75
2022-10-04T15:07:30.591Z,14.68
2022-10-04T15:10:19.061Z,14.75
2022-10-04T15:13:11.483Z,14.68
2022-10-04T15:15:57.075Z,15.11
2022-10-04T15:18:28.598Z,15.28
2022-10-04T15:21:00.020Z,15.26
2022-10-04T15:23:36.144Z,15.20
2022-10-04T15:26:08.856Z,14.94
2022-10-04T15:28:51.424Z,14.96
2022-10-04T15:31:34.957Z,14.61
2022-10-04T15:34:04.244Z,14.26
2022-10-04T15:36:43.387Z,14.07
2022-10-04T15:39:35.523Z,14.05
2022-10-04T15:42:35.401Z,13.77
2022-10-04T15:45:17.115Z,13.74
2022-10-04T15:48:05.007Z,13.68
2022-10-04T15:50:35.756Z,13.49
2022-10-04T15:53:20.106Z,13.26
2022-10-04T15:56:04.520Z,13.10
2022-10-04T15:59:00.294Z,13.07
2022-10-04T16:01:58.259Z,12.97
2022-10-04T16:04:33.990Z,12.92
2022-10-04T16:07:06.671Z,12.94
2022-10-04T16:09:50.607Z,12.88
2022-10-04T16:12:23.355Z,12.87
2022-10-04T16:14:56.379Z,12.78
2022-10-04T16:17:31.564Z,12.57
2022-10-04T16:20:13.561Z,12.60
2022-10-04T16:22:41.208Z,12.64
2022-10-04T16:25:26.274Z,12.58
2022-10-04T16:27:58.859Z,12.41
2022-10-04T16:30:47.971Z,12.29
2022-10-04T16:33:28.995Z,12.20
2022-10-04T16:36:16.921Z,12.03
2022-10-04T16:39:05.088Z,11.86
2022-10-04T16:41:44.284Z,11.70
2022-10-04T16:44:46.300Z,11.58
2022-10-04T16:47:22.285Z,11.46
2022-10-04T16:49:54.799Z,11.35
2022-10-04T16:52:48.497Z,11.43
2022-10-04T16:55:25.182Z,11.39
2022-10-04T16:58:25.958Z,11.38
2022-10-04T17:01:23.759Z,11.30
2022-10-04T17:04:13.418Z,11.42
2022-10-04T17:06:54.329Z,11.33
2022-10-04T17:09:35.455Z,11.25
2022-10-04T17:12:20.203Z,11.17
2022-10-04T17:14:56.400Z,11.20
2022-10-04T17:17:43.781Z,11.18
2022-10-04T17:20:18.357Z,11.10
2022-10-04T17:22:56.973Z,11.02
2022-10-04T17:25:43.149Z,11.05
2022-10-04T17:28:30.723Z,11.24
2022-10-04T17:31:11.797Z,11.13
2022-10-04T17:34:00.493Z,11.05
2022-10-04T17:36:34.791Z,11.18
2022-10-04T17:39:39.886Z,11.19
2022-10-04T17:42:15.211Z,11.58
2022-10-04T17:45:07.812Z,11.50
2022-10-04T17:47:57.099Z,11.45
2022-10-04T17:51:08.881Z,11.31
2022-10-04T17:53:55.666Z,11.19
2022-10-04T17:56:37.003Z,11.13
2022-10-04T17:59:12.529Z,11.21
2022-10-04T18:01:44.537Z,11.36
2022-10-04T18:04:20.449Z,11.35
2022-10-04T18:07:13.303Z,11.15
2022-10-04T18:09:39.884Z,10.99
2022-10-04T18:12:09.847Z,11.02
2022-10-04T18:15:26.627Z,10.96
2022-10-04T18:18:22.691Z,11.20
2022-10-04T18:20:52.301Z,11.14
2022-10-04T18:23:25.326Z,11.11
2022-10-04T18:25:55.338Z,11.10
2022-10-04T18:28:22.723Z,10.94
2022-10-04T18:30:49.402Z,10.96
2022-10-04T18:33:20.377Z,10.83
2022-10-04T18:36:06.450Z,10.70
2022-10-04T18:38:36.274Z,10.54
2022-10-04T18:41:20.787Z,10.46
2022-10-04T18:43:57.629Z,10.49
2022-10-04T18:46:25.295Z,10.50
2022-10-04T18:48:58.792Z,10.53
2022-10-04T18:51:28.616Z,10.39
2022-10-04T18:54:12.762Z,10.43
2022-10-04T18:56:47.189Z,10.34
2022-10-04T18:59:53.914Z,10.30
2022-10-04T19:02:31.398Z,10.39
2022-10-04T19:05:01.453Z,10.32
2022-10-04T19:07:46.444Z,10.47
2022-10-04T19:10:36.977Z,10.35
2022-10-04T19:13:08.513Z,10.31
2022-10-04T19:15:51.787Z,10.34
2022-10-04T19:18:49.771Z,10.32
2022-10-04T19:21:25.769Z,10.24
2022-10-04T19:24:37.119Z,10.25
2022-10-04T19:27:15.262Z,10.24
2022-10-04T19:29:51.328Z,10.47
2022-10-04T19:32:27.491Z,10.40
2022-10-04T19:34:59.346Z,10.36
2022-10-04T19:37:32.577Z,10.24
2022-10-04T19:40:03.558Z,10.25
2022-10-04T19:42:42.695Z,10.26
2022-10-04T19:45:15.337Z,10.22
2022-10-04T19:47:57.507Z,10.20
2022-10-04T19:50:36.773Z,10.46
2022-10-04T19:53:07.947Z,10.44
2022-10-04T19:55:45.469Z,10.70
2022-10-04T19:58:39.821Z,10.81
2022-10-04T20:01:23.979Z,11.13
2022-10-04T20:04:11.727Z,10.91
2022-10-04T20:06:47.955Z,10.70
2022-10-04T20:09:36.321Z,10.52
2022-10-04T20:12:05.008Z,10.48
2022-10-04T20:14:32.182Z,10.43
2022-10-04T20:17:00.803Z,10.31
2022-10-04T20:19:30.320Z,10.43
2022-10-04T20:22:26.831Z,10.39
2022-10-04T20:24:53.533Z,10.27
2022-10-04T20:27:30.493Z,10.44
2022-10-04T20:30:04.218Z,10.23
2022-10-04T20:32:34.121Z,10.14
2022-10-04T20:35:01.961Z,10.07
2022-10-04T20:37:44.105Z,9.85
2022-10-04T20:40:26.689Z,9.95
2022-10-04T20:43:23.293Z,10.01
2022-10-04T20:45:51.815Z,9.95
2022-10-04T20:48:26.750Z,9.85
2022-10-04T20:50:56.212Z,9.77
2022-10-04T20:53:30.902Z,9.72
2022-10-04T20:56:19.766Z,9.70
2022-10-04T20:58:53.821Z,9.59
2022-10-04T21:01:40.165Z,9.59
2022-10-04T21:04:30.669Z,9.58
2022-10-04T21:07:02.902Z,9.60
2022-10-04T21:09:31.103Z,9.57
2022-10-04T21:11:59.003Z,9.56
2022-10-04T21:14:29.667Z,9.57
2022-10-04T21:17:02.831Z,9.58
2022-10-04T21:19:30.119Z,9.64
2022-10-04T21:21:57.511Z,9.70
2022-10-04T21:24:28.292Z,9.65
2022-10-04T21:26:56.941Z,9.72
2022-10-04T21:29:23.617Z,9.66
2022-10-04T21:31:50.339Z,9.68
2022-10-04T21:34:29.061Z,9.65
2022-10-04T21:37:03.764Z,9.67
2022-10-04T21:39:31.053Z,9.66
2022-10-04T21:41:57.782Z,9.61
2022-10-04T21:44:24.601Z,9.66
2022-10-04T21:46:51.243Z,9.63
2022-10-04T21:49:27.052Z,9.57
2022-10-04T21:51:53.802Z,9.73
2022-10-04T21:54:20.505Z,9.65
2022-10-04T21:56:47.757Z,9.58
2022-10-04T21:59:17.033Z,9.50
2022-10-04T22:01:43.738Z,9.45
2022-10-04T22:04:10.922Z,9.51
2022-10-04T22:06:37.575Z,9.46
2022-10-04T22:09:04.886Z,9.42
2022-10-04T22:11:33.792Z,9.39
2022-10-04T22:14:00.480Z,9.46
2022-10-04T22:16:27.198Z,9.32
2022-10-04T22:18:55.052Z,9.34
2022-10-04T22:21:21.844Z,9.30
2022-10-04T22:23:55.887Z,9.23
2022-10-04T22:26:23.507Z,9.18
2022-10-04T22:28:52.780Z,9.13
2022-10-04T22:31:21.885Z,9.03
2022-10-04T22:33:50.048Z,9.04
2022-10-04T22:36:29.007Z,9.07
2022-10-04T22:38:59.676Z,8.99
2022-10-04T22:41:33.465Z,8.91
2022-10-04T22:44:07.439Z,9.00
2022-10-04T22:46:38.376Z,9.01
2022-10-04T22:49:13.507Z,9.13
2022-10-04T22:51:41.586Z,9.13
2022-10-04T22:54:20.467Z,9.20
2022-10-04T22:56:47.828Z,9.14
2022-10-04T22:59:17.590Z,9.08
2022-10-04T23:01:44.283Z,9.02
2022-10-04T23:04:19.155Z,9.02
2022-10-04T23:06:47.428Z,9.01
2022-10-04T23:09:14.446Z,8.99
2022-10-04T23:11:41.423Z,9.10
2022-10-04T23:14:08.170Z,9.28
2022-10-04T23:16:36.375Z,9.36
2022-10-04T23:19:11.307Z,9.36
2022-10-04T23:21:39.887Z,9.40
2022-10-04T23:24:12.711Z,9.38
2022-10-04T23:26:39.671Z,9.56
2022-10-04T23:29:07.820Z,9.49
2022-10-04T23:31:35.525Z,9.37
2022-10-04T23:34:09.474Z,9.57
2022-10-04T23:36:36.160Z,9.90
2022-10-04T23:39:02.836Z,9.91
2022-10-04T23:41:29.579Z,9.89
2022-10-04T23:43:56.481Z,10.06
2022-10-04T23:46:24.607Z,10.34
2022-10-04T23:48:51.290Z,10.31
2022-10-04T23:51:19.953Z,10.35
2022-10-04T23:53:49.120Z,10.66
2022-10-04T23:56:24.754Z,10.72
2022-10-04T23:58:53.102Z,10.81
